Time;durP1;ratioP1;P1;durP2;ratioP2;P2;SDS_P1;SDS_P2;PMS_P1;PMS_P2;Temp;Humidity;BMP_temperature;BMP_pressure;BME280_temperature;BME280_humidity;BME280_pressure;Samples;Min_cycle;Max_cycle;Signal;HPM_P1;HPM_P2
2021/05/02 00:03:07;;;;;;;36.42;24.87;;;;;;;8.18;100.00;97605.50;3759816;77;44108;-22
2021/05/02 00:08:15;;;;;;;37.48;24.72;;;;;;;8.12;100.00;97584.71;3754698;78;43765;-21
2021/05/02 00:13:21;;;;;;;36.33;25.32;;;;;;;8.08;100.00;97590.06;3758160;79;43365;-22
2021/05/02 00:18:27;;;;;;;37.55;26.23;;;;;;;8.05;100.00;97597.12;3758960;77;42747;-22
2021/05/02 00:23:36;;;;;;;39.05;25.05;;;;;;;7.97;100.00;97594.75;3757844;77;43685;-22
2021/05/02 00:28:46;;;;;;;40.58;26.57;;;;;;;7.94;100.00;97591.56;3752943;77;43526;-22
2021/05/02 00:33:52;;;;;;;41.27;26.50;;;;;;;7.89;100.00;97604.12;3724245;78;43716;-23
2021/05/02 00:38:58;;;;;;;43.83;27.82;;;;;;;7.81;100.00;97610.83;3717188;78;43685;-23
2021/05/02 00:44:07;;;;;;;43.43;27.37;;;;;;;7.75;100.00;97608.78;3721267;78;77432;-21
2021/05/02 00:49:18;;;;;;;44.98;27.27;;;;;;;7.70;100.00;97609.27;3719100;78;44573;-22
2021/05/02 00:54:31;;;;;;;43.17;27.90;;;;;;;7.62;100.00;97612.76;3718041;79;43923;-21
2021/05/02 00:59:47;;;;;;;44.83;27.73;;;;;;;7.59;100.00;97599.67;3720309;78;77419;-22
2021/05/02 01:04:55;;;;;;;49.60;29.03;;;;;;;7.51;100.00;97607.70;3720017;78;44042;-22
2021/05/02 01:10:05;;;;;;;51.07;28.83;;;;;;;7.47;100.00;97609.01;3719015;79;43673;-22
2021/05/02 01:15:14;;;;;;;45.57;28.80;;;;;;;7.39;100.00;97603.14;3723251;79;43487;-22
2021/05/02 01:20:20;;;;;;;49.23;28.77;;;;;;;7.36;100.00;97608.30;3722757;78;77443;-22
2021/05/02 01:25:26;;;;;;;47.57;29.67;;;;;;;7.29;100.00;97607.80;3722964;79;43314;-23
2021/05/02 01:30:32;;;;;;;51.07;30.53;;;;;;;7.29;100.00;97603.77;3732774;77;43275;-21
2021/05/02 01:35:38;;;;;;;52.10;31.17;;;;;;;7.27;100.00;97611.95;3759623;77;44149;-22
2021/05/02 01:40:44;;;;;;;57.60;32.77;;;;;;;7.24;100.00;97609.10;3754254;79;73736;-22
2021/05/02 01:45:50;;;;;;;54.77;31.00;;;;;;;7.22;100.00;97603.06;3755812;79;43484;-22
2021/05/02 01:51:00;;;;;;;62.53;34.97;;;;;;;7.21;100.00;97608.08;3759943;77;44096;-22
2021/05/02 01:56:07;;;;;;;68.12;36.28;;;;;;;7.20;100.00;97605.56;3758398;79;43311;-22
2021/05/02 02:01:17;;;;;;;61.17;33.80;;;;;;;7.18;100.00;97622.30;3753893;79;43361;-21
2021/05/02 02:06:23;;;;;;;62.87;33.17;;;;;;;7.14;100.00;97618.24;3758333;77;43421;-21
2021/05/02 02:11:31;;;;;;;61.50;33.60;;;;;;;7.14;100.00;97612.89;3757027;77;43322;-22
2021/05/02 02:16:39;;;;;;;65.97;34.88;;;;;;;7.13;100.00;97626.80;3758253;79;43462;-22
2021/05/02 02:21:47;;;;;;;70.53;35.67;;;;;;;7.21;100.00;97627.34;3755691;77;44076;-22
2021/05/02 02:26:56;;;;;;;66.53;34.40;;;;;;;7.27;100.00;97627.20;3757891;78;44010;-22
2021/05/02 02:32:04;;;;;;;69.07;33.93;;;;;;;7.34;100.00;97633.11;3754825;79;44068;-26
2021/05/02 02:37:14;;;;;;;68.67;35.70;;;;;;;7.40;100.00;97628.94;3757277;77;43625;-26
2021/05/02 02:42:24;;;;;;;71.37;36.25;;;;;;;7.43;100.00;97633.95;3750680;77;44043;-26
2021/05/02 02:47:35;;;;;;;65.32;34.33;;;;;;;7.37;100.00;97632.76;3754538;77;43523;-27
2021/05/02 02:52:46;;;;;;;65.87;34.58;;;;;;;7.36;100.00;97640.97;3757404;79;44018;-27
2021/05/02 02:57:56;;;;;;;61.30;32.65;;;;;;;7.35;100.00;97638.77;3756475;79;43360;-26
2021/05/02 03:03:07;;;;;;;42.47;25.47;;;;;;;7.35;100.00;97651.34;3756149;77;43547;-28
2021/05/02 03:08:13;;;;;;;39.40;24.07;;;;;;;7.32;100.00;97649.84;3756050;79;44115;-27
2021/05/02 03:13:20;;;;;;;46.40;27.33;;;;;;;7.32;100.00;97645.81;3755536;77;77427;-22
2021/05/02 03:18:27;;;;;;;53.43;29.67;;;;;;;7.33;100.00;97646.64;3757197;77;43425;-23
2021/05/02 03:23:36;;;;;;;36.58;22.73;;;;;;;7.27;100.00;97656.16;3757559;77;43706;-24
2021/05/02 03:28:45;;;;;;;20.20;14.28;;;;;;;7.18;100.00;97659.80;3755319;77;44047;-23
2021/05/02 03:33:54;;;;;;;24.27;15.58;;;;;;;7.03;100.00;97653.67;3728342;78;44018;-22
2021/05/02 03:39:01;;;;;;;26.05;17.07;;;;;;;7.03;100.00;97654.19;3722024;79;43405;-22
2021/05/02 03:44:07;;;;;;;21.68;14.45;;;;;;;7.01;100.00;97659.69;3722705;78;44124;-24
2021/05/02 03:49:13;;;;;;;23.02;14.25;;;;;;;6.92;100.00;97667.33;3724301;78;44123;-23
2021/05/02 03:54:19;;;;;;;22.03;15.00;;;;;;;6.88;100.00;97674.02;3722367;78;43319;-23
2021/05/02 03:59:27;;;;;;;19.43;13.27;;;;;;;6.81;100.00;97676.47;3717764;78;73223;-24
2021/05/02 04:04:35;;;;;;;19.98;13.30;;;;;;;6.74;100.00;97673.58;3724224;78;43712;-23
2021/05/02 04:09:42;;;;;;;21.57;13.83;;;;;;;6.72;100.00;97680.05;3718813;79;42936;-23
2021/05/02 04:14:48;;;;;;;21.60;13.23;;;;;;;6.69;100.00;97684.41;3718942;79;43303;-24
2021/05/02 04:19:55;;;;;;;20.55;13.85;;;;;;;6.68;100.00;97692.09;3714463;78;73729;-25
2021/05/02 04:25:02;;;;;;;18.87;12.55;;;;;;;6.69;100.00;97702.62;3719407;79;43220;-23
2021/05/02 04:30:10;;;;;;;23.47;15.13;;;;;;;6.72;100.00;97707.68;3723605;78;44045;-23
2021/05/02 04:35:16;;;;;;;20.57;13.60;;;;;;;6.68;100.00;97707.64;3762287;77;43439;-23
2021/05/02 04:40:21;;;;;;;20.70;13.70;;;;;;;6.70;100.00;97712.34;3760371;77;45104;-24
2021/05/02 04:45:28;;;;;;;18.57;12.23;;;;;;;6.70;100.00;97716.36;3759790;79;43355;-24
2021/05/02 04:50:34;;;;;;;20.60;12.90;;;;;;;6.72;100.00;97723.74;3758305;77;44118;-22
2021/05/02 04:55:41;;;;;;;19.50;13.23;;;;;;;6.73;100.00;97733.94;3759093;79;43693;-22
2021/05/02 05:00:47;;;;;;;19.40;13.28;;;;;;;6.73;100.00;97731.27;3758542;77;43758;-23
2021/05/02 05:05:53;;;;;;;20.40;13.05;;;;;;;6.73;100.00;97745.50;3760794;77;43294;-23
2021/05/02 05:10:58;;;;;;;19.17;13.37;;;;;;;6.71;100.00;97746.15;3757485;77;68993;-23
2021/05/02 05:16:05;;;;;;;20.40;13.50;;;;;;;6.71;100.00;97754.18;3758679;77;44106;-23
2021/05/02 05:21:12;;;;;;;19.50;13.53;;;;;;;6.72;100.00;97758.55;3761636;77;43354;-23
2021/05/02 05:26:18;;;;;;;21.43;13.50;;;;;;;6.69;100.00;97755.34;3759305;78;43401;-22
2021/05/02 05:31:24;;;;;;;20.07;13.43;;;;;;;6.71;100.00;97765.37;3754334;79;43034;-23
2021/05/02 05:36:30;;;;;;;21.55;13.75;;;;;;;6.71;100.00;97767.56;3762104;77;43534;-23
2021/05/02 05:41:36;;;;;;;23.83;15.23;;;;;;;6.67;100.00;97774.20;3755649;77;44070;-23
2021/05/02 05:46:42;;;;;;;23.25;14.75;;;;;;;6.63;100.00;97780.37;3756353;77;44014;-23
2021/05/02 05:51:51;;;;;;;24.40;15.48;;;;;;;6.67;100.00;97790.77;3760838;77;44545;-23
2021/05/02 05:56:56;;;;;;;25.00;14.95;;;;;;;6.69;100.00;97790.96;3759072;79;44040;-22
2021/05/02 06:02:03;;;;;;;24.77;14.75;;;;;;;6.72;100.00;97802.71;3756101;79;44019;-22
2021/05/02 06:07:09;;;;;;;29.42;17.48;;;;;;;6.70;100.00;97808.70;3759754;77;43899;-22
2021/05/02 06:12:16;;;;;;;30.97;17.73;;;;;;;6.62;100.00;97810.80;3759207;79;44052;-23
2021/05/02 06:17:23;;;;;;;31.87;18.17;;;;;;;6.49;100.00;97825.03;3760372;77;43696;-24
2021/05/02 06:22:29;;;;;;;40.03;21.83;;;;;;;6.46;100.00;97824.84;3757954;77;73201;-23
2021/05/02 06:27:36;;;;;;;42.25;23.77;;;;;;;6.39;100.00;97833.14;3761259;79;44121;-23
2021/05/02 06:32:41;;;;;;;46.33;25.47;;;;;;;6.33;100.00;97843.08;3752737;78;44034;-23
2021/05/02 06:37:48;;;;;;;52.30;27.87;;;;;;;6.31;100.00;97843.24;3723672;78;44089;-23
2021/05/02 06:42:53;;;;;;;48.85;26.12;;;;;;;6.34;100.00;97847.44;3723964;79;44084;-22
2021/05/02 06:47:59;;;;;;;46.57;25.57;;;;;;;6.34;100.00;97853.30;3720767;78;43474;-28
2021/05/02 06:53:06;;;;;;;47.13;26.53;;;;;;;6.30;100.00;97857.61;3722802;78;77319;-22
2021/05/02 06:58:12;;;;;;;50.70;26.83;;;;;;;6.25;100.00;97864.39;3722311;78;77437;-23
2021/05/02 07:03:21;;;;;;;46.18;26.33;;;;;;;6.26;100.00;97868.75;3725938;78;44009;-23
2021/05/02 07:08:26;;;;;;;44.67;25.70;;;;;;;6.20;100.00;97882.70;3722302;78;43372;-23
2021/05/02 07:13:32;;;;;;;46.60;25.60;;;;;;;6.20;100.00;97892.92;3723071;79;77302;-21
2021/05/02 07:18:40;;;;;;;43.50;25.20;;;;;;;6.24;100.00;97880.09;3727010;78;44006;-24
2021/05/02 07:23:48;;;;;;;37.77;23.57;;;;;;;6.19;100.00;97886.36;3725540;78;43424;-22
2021/05/02 07:28:54;;;;;;;35.83;22.33;;;;;;;6.06;100.00;97894.21;3720673;78;43431;-22
2021/05/02 07:34:00;;;;;;;31.40;20.60;;;;;;;6.00;100.00;97905.50;3726811;78;43282;-23
2021/05/02 07:39:07;;;;;;;39.23;23.65;;;;;;;5.99;100.00;97902.45;3702640;79;43374;-22
2021/05/02 07:44:13;;;;;;;41.40;24.02;;;;;;;6.08;100.00;97905.61;3722747;79;43689;-23
2021/05/02 07:49:20;;;;;;;38.65;22.48;;;;;;;6.10;100.00;97917.02;3716629;78;44085;-23
2021/05/02 07:54:28;;;;;;;36.37;20.90;;;;;;;6.17;100.00;97921.29;3720780;79;43383;-23
2021/05/02 07:59:34;;;;;;;31.50;20.37;;;;;;;6.23;100.00;97928.75;3717317;78;43416;-24
2021/05/02 08:04:40;;;;;;;31.45;19.62;;;;;;;6.23;100.00;97927.89;3723809;78;43648;-23
2021/05/02 08:09:46;;;;;;;30.23;18.95;;;;;;;6.24;100.00;97929.58;3717566;78;43134;-23
2021/05/02 08:14:52;;;;;;;26.40;17.00;;;;;;;6.28;100.00;97937.67;3663413;81;44060;-22
2021/05/02 08:19:58;;;;;;;25.17;16.37;;;;;;;6.23;100.00;97958.17;3724014;78;43344;-23
2021/05/02 08:25:05;;;;;;;29.93;18.47;;;;;;;6.19;100.00;97950.08;3724056;79;44046;-22
2021/05/02 08:30:13;;;;;;;27.90;18.05;;;;;;;6.24;100.00;97969.70;3718860;79;44027;-21
2021/05/02 08:35:19;;;;;;;29.97;19.43;;;;;;;6.21;100.00;97964.63;3756739;77;43946;-25
2021/05/02 08:40:25;;;;;;;32.85;21.10;;;;;;;6.26;100.00;97963.72;3775931;77;43681;-23
2021/05/02 08:45:32;;;;;;;32.30;20.17;;;;;;;6.45;100.00;97978.36;3781375;78;43361;-25
2021/05/02 08:50:39;;;;;;;34.53;21.60;;;;;;;6.58;100.00;97971.84;3785301;77;43436;-23
2021/05/02 08:55:47;;;;;;;30.65;19.62;;;;;;;6.74;100.00;97969.38;3780253;78;78439;-23
2021/05/02 09:00:54;;;;;;;31.93;19.85;;;;;;;6.77;100.00;97976.27;3779913;78;43720;-23
2021/05/02 09:05:59;;;;;;;32.13;21.05;;;;;;;6.84;100.00;97969.83;3785401;77;44025;-24
2021/05/02 09:11:06;;;;;;;31.07;21.27;;;;;;;6.85;100.00;97975.53;3781929;77;77644;-24
2021/05/02 09:16:11;;;;;;;29.40;18.60;;;;;;;6.82;100.00;97969.12;3776530;77;43472;-23
2021/05/02 09:21:20;;;;;;;28.83;17.98;;;;;;;6.68;100.00;97973.98;3780501;77;43256;-23
2021/05/02 09:26:28;;;;;;;28.63;18.50;;;;;;;6.74;100.00;97978.75;3783308;78;43454;-23
2021/05/02 09:31:36;;;;;;;30.92;19.60;;;;;;;6.79;100.00;97985.83;3783194;78;44061;-23
2021/05/02 09:36:55;;;;;;;26.97;18.07;;;;;;;6.82;100.00;97990.55;3767516;77;44040;-23
2021/05/02 09:42:06;;;;;;;24.67;16.23;;;;;;;6.69;100.00;97990.89;3758312;77;44060;-23
2021/05/02 09:47:28;;;;;;;25.25;17.45;;;;;;;6.65;100.00;97988.98;3755149;77;43353;-23
2021/05/02 09:52:49;;;;;;;25.03;17.47;;;;;;;6.68;100.00;97992.71;3753015;79;43955;-24
2021/05/02 09:57:58;;;;;;;27.00;18.00;;;;;;;6.67;100.00;98004.41;3751632;78;43373;-22
2021/05/02 10:03:07;;;;;;;27.55;18.52;;;;;;;6.60;100.00;98014.86;3753868;77;44049;-24
2021/05/02 10:08:16;;;;;;;30.40;19.85;;;;;;;6.60;100.00;98013.52;3753815;77;77383;-23
2021/05/02 10:13:23;;;;;;;23.25;16.52;;;;;;;6.77;100.00;98013.23;3754546;77;73243;-23
2021/05/02 10:18:30;;;;;;;21.33;15.53;;;;;;;6.97;100.00;98021.21;3758789;77;43423;-24
2021/05/02 10:23:37;;;;;;;25.15;14.03;;;;;;;7.11;100.00;98015.84;3751115;77;44074;-22
2021/05/02 10:28:45;;;;;;;20.27;13.70;;;;;;;7.20;100.00;98010.09;3755456;77;44162;-22
2021/05/02 10:33:51;;;;;;;19.30;13.63;;;;;;;7.43;100.00;98031.11;3761172;77;44087;-23
2021/05/02 10:38:59;;;;;;;16.53;11.30;;;;;;;7.62;100.00;98026.12;3779700;77;44078;-22
2021/05/02 10:44:32;;;;;;;15.80;10.85;;;;;;;7.48;100.00;98030.14;3776367;77;43721;-22
2021/05/02 10:49:56;;;;;;;17.20;12.03;;;;;;;7.47;100.00;98044.53;3779389;77;43211;-23
2021/05/02 10:55:16;;;;;;;14.75;10.23;;;;;;;7.69;100.00;98052.17;3778135;77;76432;-23
2021/05/02 11:00:22;;;;;;;15.03;10.53;;;;;;;7.61;100.00;98060.11;3778354;77;44099;-22
2021/05/02 11:05:31;;;;;;;14.00;10.00;;;;;;;7.64;100.00;98067.86;3776441;77;43683;-23
2021/05/02 11:10:52;;;;;;;15.95;10.28;;;;;;;7.67;100.00;98064.02;3775171;78;43730;-22
2021/05/02 11:16:18;;;;;;;11.77;8.73;;;;;;;7.62;100.00;98075.20;3774940;77;43265;-22
2021/05/02 11:21:25;;;;;;;13.70;9.90;;;;;;;7.58;100.00;98064.93;3781032;77;44057;-22
2021/05/02 11:26:54;;;;;;;14.40;10.53;;;;;;;7.58;100.00;98072.50;3778632;78;77347;-22
2021/05/02 11:31:58;;;;;;;14.33;10.60;;;;;;;7.64;100.00;98079.92;3778864;77;44040;-22
2021/05/02 11:37:04;;;;;;;16.30;11.03;;;;;;;7.70;100.00;98075.28;3758100;77;44700;-26
2021/05/02 11:42:11;;;;;;;14.45;10.85;;;;;;;7.94;100.00;98075.17;3734420;79;43701;-23
2021/05/02 11:47:19;;;;;;;14.13;10.75;;;;;;;7.81;100.00;98074.73;3751194;77;77415;-22
2021/05/02 11:52:26;;;;;;;15.28;12.00;;;;;;;7.89;100.00;98076.16;3745719;79;44030;-24
2021/05/02 11:57:43;;;;;;;16.20;11.40;;;;;;;7.97;100.00;98080.24;3736796;79;43283;-22
2021/05/02 12:02:49;;;;;;;14.43;10.75;;;;;;;8.12;100.00;98074.34;3751192;77;43143;-22
2021/05/02 12:08:12;;;;;;;14.40;9.65;;;;;;;8.31;100.00;98076.84;3755022;77;44515;-22
2021/05/02 12:13:36;;;;;;;14.23;9.60;;;;;;;8.26;100.00;98080.52;3750618;79;44034;-22
2021/05/02 12:19:02;;;;;;;13.03;8.58;;;;;;;7.60;100.00;98091.92;3743665;77;43692;-21
2021/05/02 12:24:17;;;;;;;11.70;8.43;;;;;;;6.79;100.00;98113.01;3744033;79;44040;-23
2021/05/02 12:29:29;;;;;;;13.73;9.53;;;;;;;6.82;100.00;98119.06;3740728;79;44406;-21
2021/05/02 12:34:37;;;;;;;12.68;8.60;;;;;;;7.13;100.00;98118.34;3743299;77;44026;-22
2021/05/02 12:39:44;;;;;;;10.25;7.37;;;;;;;7.19;100.00;98139.17;3775834;77;75442;-22
2021/05/02 12:44:54;;;;;;;8.20;6.43;;;;;;;7.11;100.00;98140.41;3775137;77;43012;-22
2021/05/02 12:50:03;;;;;;;7.83;6.05;;;;;;;6.66;100.00;98142.42;3778352;77;42840;-21
2021/05/02 12:55:20;;;;;;;6.83;5.17;;;;;;;6.70;100.00;98139.31;3777519;78;44039;-22
2021/05/02 13:00:31;;;;;;;8.15;5.92;;;;;;;6.70;100.00;98140.66;3771666;78;69271;-22
2021/05/02 13:05:35;;;;;;;6.87;5.37;;;;;;;6.83;100.00;98139.50;3779237;77;43824;-22
2021/05/02 13:10:41;;;;;;;6.90;5.23;;;;;;;7.01;100.00;98128.38;3776927;78;44124;-22
2021/05/02 13:15:49;;;;;;;5.70;4.67;;;;;;;7.28;100.00;98123.22;3768732;77;43470;-22
2021/05/02 13:20:57;;;;;;;6.50;4.73;;;;;;;7.48;100.00;98122.61;3764634;77;44062;-22
2021/05/02 13:26:20;;;;;;;5.45;4.70;;;;;;;7.73;100.00;98130.95;3753844;78;44030;-22
2021/05/02 13:31:42;;;;;;;4.70;3.87;;;;;;;7.98;100.00;98130.22;3755590;78;44027;-21
2021/05/02 13:36:50;;;;;;;5.42;4.37;;;;;;;8.31;100.00;98132.38;3761842;77;44500;-22
2021/05/02 13:41:58;;;;;;;6.90;4.25;;;;;;;8.32;100.00;98136.24;3736038;79;43672;-22
2021/05/02 13:47:04;;;;;;;4.85;4.17;;;;;;;8.36;100.00;98137.28;3739786;79;43421;-22
2021/05/02 13:52:10;;;;;;;5.33;3.65;;;;;;;8.37;98.63;98153.23;3743090;77;43325;-22
2021/05/02 13:57:18;;;;;;;7.17;4.43;;;;;;;8.36;90.31;98148.85;3736352;77;69378;-22
2021/05/02 14:02:25;;;;;;;5.67;4.20;;;;;;;8.68;99.34;98140.78;3737881;77;69223;-22
2021/05/02 14:07:31;;;;;;;4.90;3.92;;;;;;;8.57;95.30;98170.05;3742397;79;42866;-22
2021/05/02 14:12:38;;;;;;;5.28;4.08;;;;;;;8.68;95.32;98140.78;3744435;79;44522;-23
2021/05/02 14:17:46;;;;;;;4.47;3.83;;;;;;;8.76;91.25;98144.03;3743279;77;43066;-22
2021/05/02 14:22:52;;;;;;;4.53;3.40;;;;;;;8.89;91.10;98143.09;3756027;77;44838;-22
2021/05/02 14:27:58;;;;;;;4.70;3.70;;;;;;;8.97;81.29;98144.17;3758065;77;43310;-22
2021/05/02 14:33:09;;;;;;;5.25;3.87;;;;;;;8.77;85.34;98143.00;3758273;77;43769;-21
2021/05/02 14:38:16;;;;;;;5.93;4.17;;;;;;;8.59;89.12;98153.29;3740740;78;69456;-21
2021/05/02 14:43:22;;;;;;;5.60;3.80;;;;;;;8.44;88.77;98147.60;3722995;79;43957;-21
2021/05/02 14:48:29;;;;;;;4.83;3.77;;;;;;;8.24;95.55;98176.91;3720960;78;44091;-21
2021/05/02 14:53:36;;;;;;;5.40;4.17;;;;;;;8.04;97.36;98174.38;3718320;79;43664;-21
2021/05/02 14:58:45;;;;;;;5.30;4.30;;;;;;;7.97;100.00;98179.50;3722283;79;43409;-21
2021/05/02 15:03:54;;;;;;;5.58;4.08;;;;;;;7.82;97.43;98188.56;3721230;78;44484;-21
2021/05/02 15:09:04;;;;;;;5.28;4.00;;;;;;;7.91;100.00;98198.89;3717596;79;43661;-21
2021/05/02 15:14:16;;;;;;;4.57;3.60;;;;;;;7.93;99.51;98201.41;3721638;79;43202;-21
2021/05/02 15:19:22;;;;;;;4.28;3.50;;;;;;;8.00;99.67;98201.15;3723490;78;43704;-21
2021/05/02 15:24:30;;;;;;;4.17;3.60;;;;;;;8.19;99.69;98193.48;3722390;79;26394;-22
2021/05/02 15:29:36;;;;;;;4.55;3.85;;;;;;;8.46;89.98;98199.79;3717236;78;44766;-20
2021/05/02 15:34:42;;;;;;;5.63;3.90;;;;;;;8.47;89.43;98203.68;3717556;78;69069;-20
2021/05/02 15:39:48;;;;;;;4.12;3.72;;;;;;;8.61;94.10;98192.92;3717384;78;44090;-22
2021/05/02 15:44:55;;;;;;;5.33;4.40;;;;;;;8.76;89.23;98202.61;3722014;78;44169;-21
2021/05/02 15:50:01;;;;;;;5.10;4.00;;;;;;;9.44;92.71;98199.37;3725575;78;43694;-21
2021/05/02 15:55:09;;;;;;;4.70;3.92;;;;;;;9.59;85.61;98200.95;3722774;78;44089;-21
2021/05/02 16:00:17;;;;;;;5.22;3.50;;;;;;;9.76;89.77;98189.28;3717441;78;43467;-20
2021/05/02 16:05:30;;;;;;;4.00;3.30;;;;;;;9.41;83.30;98187.92;3721857;78;44181;-20
2021/05/02 16:10:35;;;;;;;4.72;3.37;;;;;;;9.09;86.16;98179.18;3726208;78;43678;-21
2021/05/02 16:15:42;;;;;;;4.17;3.50;;;;;;;8.71;82.21;98187.95;3722463;78;43986;-22
2021/05/02 16:20:50;;;;;;;4.30;3.40;;;;;;;8.60;82.75;98188.55;3721563;78;26380;-21
2021/05/02 16:25:56;;;;;;;4.67;3.83;;;;;;;8.49;83.34;98192.81;3719837;78;43094;-22
2021/05/02 16:31:03;;;;;;;6.40;3.67;;;;;;;8.75;84.99;98199.58;3722547;79;43302;-22
2021/05/02 16:36:10;;;;;;;4.85;3.30;;;;;;;8.69;86.34;98203.38;3719228;78;44012;-20
2021/05/02 16:41:17;;;;;;;5.23;3.30;;;;;;;8.75;82.65;98206.80;3752215;78;43412;-20
2021/05/02 16:46:24;;;;;;;3.87;3.17;;;;;;;8.84;85.74;98207.69;3757426;79;73169;-20
2021/05/02 16:51:30;;;;;;;4.35;3.10;;;;;;;8.59;83.91;98232.50;3757037;77;43624;-20
2021/05/02 16:56:36;;;;;;;5.12;3.52;;;;;;;8.56;86.81;98210.49;3753088;77;43728;-20
2021/05/02 17:01:44;;;;;;;5.25;2.85;;;;;;;8.58;86.16;98219.25;3758036;77;64988;-21
2021/05/02 17:06:50;;;;;;;3.87;2.62;;;;;;;8.56;83.82;98220.72;3756895;77;44061;-21
2021/05/02 17:11:56;;;;;;;3.52;2.67;;;;;;;8.05;79.86;98222.19;3758275;79;43678;-21
2021/05/02 17:17:02;;;;;;;3.43;2.87;;;;;;;7.88;82.71;98234.05;3759013;79;44470;-21
2021/05/02 17:22:08;;;;;;;3.70;3.10;;;;;;;7.89;86.05;98238.42;3763961;77;44046;-21
2021/05/02 17:27:14;;;;;;;3.77;2.70;;;;;;;7.82;89.57;98233.32;3759031;77;44618;-22
2021/05/02 17:32:20;;;;;;;4.53;2.90;;;;;;;7.74;83.77;98249.28;3759166;77;43726;-21
2021/05/02 17:37:27;;;;;;;3.30;3.00;;;;;;;7.70;84.67;98258.13;3758680;79;44010;-22
2021/05/02 17:42:33;;;;;;;2.77;2.58;;;;;;;7.68;87.36;98253.40;3725525;79;43330;-22
2021/05/02 17:47:39;;;;;;;4.07;2.50;;;;;;;7.57;87.84;98254.44;3723146;78;43682;-21
2021/05/02 17:52:46;;;;;;;5.33;3.00;;;;;;;7.56;90.71;98256.77;3724271;79;43992;-21
2021/05/02 17:57:51;;;;;;;3.63;2.83;;;;;;;7.46;91.48;98268.02;3723293;78;73188;-21
2021/05/02 18:02:57;;;;;;;3.67;2.40;;;;;;;7.43;94.60;98275.00;3724246;78;43301;-21
2021/05/02 18:08:05;;;;;;;4.13;2.70;;;;;;;6.93;95.42;98272.89;3723495;78;43737;-20
2021/05/02 18:13:11;;;;;;;3.33;2.50;;;;;;;6.76;99.22;98277.95;3717783;78;43179;-21
2021/05/02 18:18:17;;;;;;;3.67;2.87;;;;;;;6.74;100.00;98281.28;3722932;78;73282;-18
2021/05/02 18:23:23;;;;;;;3.90;2.60;;;;;;;6.69;100.00;98286.20;3724193;79;44708;-21
2021/05/02 18:28:29;;;;;;;4.30;2.77;;;;;;;6.57;100.00;98298.88;3720496;79;43348;-21
2021/05/02 18:33:36;;;;;;;5.33;3.20;;;;;;;6.53;100.00;98297.94;3718771;78;43200;-21
2021/05/02 18:38:43;;;;;;;3.57;3.27;;;;;;;6.38;100.00;98311.73;3716146;78;73694;-21
2021/05/02 18:43:49;;;;;;;3.33;3.00;;;;;;;6.17;100.00;98326.02;3689137;79;44002;-21
2021/05/02 18:48:54;;;;;;;4.43;2.97;;;;;;;6.10;100.00;98323.54;3693723;79;44027;-21
2021/05/02 18:54:01;;;;;;;4.87;3.43;;;;;;;6.04;100.00;98333.45;3691685;79;42794;-21
2021/05/02 18:59:08;;;;;;;4.63;3.20;;;;;;;5.94;100.00;98341.39;3680482;80;44075;-21
2021/05/02 19:04:14;;;;;;;3.93;2.97;;;;;;;5.91;100.00;98344.33;3676379;80;43371;-20
2021/05/02 19:09:20;;;;;;;3.93;3.10;;;;;;;5.89;100.00;98349.46;3672302;79;69108;-20
2021/05/02 19:14:26;;;;;;;3.43;2.90;;;;;;;5.81;100.00;98354.99;3686405;79;73499;-21
2021/05/02 19:19:32;;;;;;;4.50;2.80;;;;;;;5.75;100.00;98358.18;3690229;80;44089;-21
2021/05/02 19:24:38;;;;;;;4.40;2.70;;;;;;;5.58;100.00;98368.98;3695485;79;44075;-21
2021/05/02 19:29:44;;;;;;;3.47;2.73;;;;;;;5.46;100.00;98366.88;3689275;79;43923;-20
2021/05/02 19:34:50;;;;;;;4.77;2.87;;;;;;;5.39;100.00;98371.03;3691390;79;44046;-20
2021/05/02 19:39:56;;;;;;;4.53;3.10;;;;;;;5.27;100.00;98386.28;3691483;79;43690;-20
2021/05/02 19:45:02;;;;;;;5.33;2.87;;;;;;;5.19;100.00;98387.39;3689002;80;43294;-22
2021/05/02 19:50:09;;;;;;;5.80;2.73;;;;;;;5.20;100.00;98396.62;3687137;79;44193;-22
2021/05/02 19:55:16;;;;;;;2.73;2.40;;;;;;;5.22;100.00;98403.16;3690957;79;43455;-22
2021/05/02 20:00:22;;;;;;;2.80;2.50;;;;;;;5.28;100.00;98409.82;3688163;79;43988;-22
2021/05/02 20:05:28;;;;;;;3.30;2.70;;;;;;;5.30;100.00;98406.54;3690597;80;43383;-22
2021/05/02 20:10:35;;;;;;;5.60;2.90;;;;;;;5.20;100.00;98412.66;3689315;79;44011;-22
2021/05/02 20:15:41;;;;;;;3.97;3.03;;;;;;;5.10;100.00;98411.72;3689830;80;43684;-22
2021/05/02 20:20:48;;;;;;;3.80;2.30;;;;;;;5.05;100.00;98409.44;3690707;79;44371;-22
2021/05/02 20:25:54;;;;;;;3.60;2.83;;;;;;;4.95;100.00;98411.14;3689995;79;44087;-21
2021/05/02 20:31:00;;;;;;;3.73;2.90;;;;;;;4.85;100.00;98415.53;3686944;80;44090;-22
2021/05/02 20:36:09;;;;;;;5.30;3.17;;;;;;;4.79;100.00;98416.89;3692165;79;44101;-22
2021/05/02 20:41:17;;;;;;;3.50;2.73;;;;;;;4.67;100.00;98418.74;3699517;79;44030;-22
2021/05/02 20:46:23;;;;;;;3.73;2.87;;;;;;;4.61;100.00;98421.42;3724436;79;43736;-22
2021/05/02 20:51:29;;;;;;;6.27;3.47;;;;;;;4.54;100.00;98426.03;3720843;78;44032;-22
2021/05/02 20:56:35;;;;;;;5.67;4.03;;;;;;;4.48;100.00;98420.70;3724455;78;43412;-22
2021/05/02 21:01:42;;;;;;;6.37;4.40;;;;;;;4.47;100.00;98424.34;3723454;78;43339;-22
2021/05/02 21:06:48;;;;;;;5.63;3.73;;;;;;;4.36;100.00;98425.68;3721241;78;43516;-22
2021/05/02 21:11:54;;;;;;;6.93;4.10;;;;;;;4.29;100.00;98423.48;3724592;79;44699;-22
2021/05/02 21:16:59;;;;;;;5.87;4.23;;;;;;;4.28;100.00;98429.81;3723965;79;43456;-22
2021/05/02 21:22:07;;;;;;;6.43;3.80;;;;;;;4.24;100.00;98439.48;3727411;78;43695;-22
2021/05/02 21:27:13;;;;;;;5.43;3.90;;;;;;;4.20;100.00;98442.05;3724312;79;43358;-23
2021/05/02 21:32:20;;;;;;;5.40;3.37;;;;;;;4.16;100.00;98445.45;3723227;78;43690;-22
2021/05/02 21:37:26;;;;;;;5.50;3.20;;;;;;;4.15;100.00;98449.91;3721396;78;43299;-22
2021/05/02 21:42:32;;;;;;;4.97;3.23;;;;;;;4.14;100.00;98444.21;3723931;79;44104;-22
2021/05/02 21:47:38;;;;;;;3.63;2.87;;;;;;;4.05;100.00;98448.09;3721205;79;43490;-22
2021/05/02 21:52:50;;;;;;;6.60;2.80;;;;;;;4.02;100.00;98462.49;3730733;78;43714;-21
2021/05/02 21:57:55;;;;;;;4.33;2.93;;;;;;;4.03;100.00;98466.03;3724306;78;43399;-22
2021/05/02 22:03:01;;;;;;;4.33;3.00;;;;;;;4.19;100.00;98475.02;3724321;79;43506;-21
2021/05/02 22:08:07;;;;;;;5.47;3.03;;;;;;;4.20;100.00;98478.88;3720079;78;43713;-22
2021/05/02 22:13:13;;;;;;;5.47;2.80;;;;;;;4.16;100.00;98486.77;3721757;78;43086;-21
2021/05/02 22:18:25;;;;;;;2.90;2.50;;;;;;;4.11;100.00;98488.47;3723199;79;43983;-21
2021/05/02 22:23:28;;;;;;;3.47;2.73;;;;;;;4.09;100.00;98480.20;3724007;78;44505;-22
2021/05/02 22:28:34;;;;;;;3.10;2.53;;;;;;;4.07;100.00;98488.80;3722997;79;43314;-21
2021/05/02 22:33:41;;;;;;;4.13;2.83;;;;;;;4.14;100.00;98492.70;3722605;79;44081;-21
2021/05/02 22:38:47;;;;;;;5.00;2.70;;;;;;;4.07;100.00;98494.13;3718017;78;44059;-21
2021/05/02 22:43:56;;;;;;;3.27;2.70;;;;;;;4.03;100.00;98496.69;3726067;78;44083;-21
2021/05/02 22:49:01;;;;;;;4.93;3.00;;;;;;;3.92;100.00;98502.83;3720012;78;43710;-21
2021/05/02 22:54:09;;;;;;;3.80;2.67;;;;;;;3.83;100.00;98509.70;3725883;78;43405;-21
2021/05/02 22:59:16;;;;;;;3.20;2.70;;;;;;;3.82;100.00;98507.53;3723859;78;43443;-21
2021/05/02 23:04:22;;;;;;;4.97;2.73;;;;;;;3.81;100.00;98510.32;3721271;79;43397;-21
2021/05/02 23:09:28;;;;;;;3.87;2.70;;;;;;;3.90;100.00;98514.95;3727348;78;43484;-21
2021/05/02 23:14:34;;;;;;;3.40;2.70;;;;;;;3.83;100.00;98523.02;3724606;79;44108;-21
2021/05/02 23:19:40;;;;;;;4.83;3.17;;;;;;;3.75;100.00;98524.09;3723623;78;43694;-21
2021/05/02 23:24:46;;;;;;;5.90;3.20;;;;;;;3.72;100.00;98526.52;3728812;78;43319;-21
2021/05/02 23:29:53;;;;;;;4.30;2.77;;;;;;;3.62;100.00;98524.17;3722376;78;44056;-21
2021/05/02 23:34:59;;;;;;;4.93;3.00;;;;;;;3.61;100.00;98516.65;3723815;79;44035;-21
2021/05/02 23:40:09;;;;;;;3.77;2.90;;;;;;;3.63;100.00;98518.72;3723811;78;42138;-21
2021/05/02 23:45:19;;;;;;;3.97;3.03;;;;;;;3.63;100.00;98518.72;3759973;78;43706;-21
2021/05/02 23:50:26;;;;;;;3.27;2.70;;;;;;;3.67;100.00;98520.66;3776002;77;44404;-21
2021/05/02 23:55:32;;;;;;;5.73;2.80;;;;;;;3.72;100.00;98524.31;3777402;77;44034;-21
